createdAt,value
2023-05-21T19:09:23.089Z,7.15
2023-05-21T19:11:51.366Z,5.90
2023-05-21T19:14:20.286Z,5.78
2023-05-21T19:16:48.286Z,5.78
2023-05-21T19:19:16.519Z,5.88
2023-05-21T19:21:44.544Z,4.50
2023-05-21T19:24:12.433Z,4.40
2023-05-21T19:26:41.697Z,5.20
2023-05-21T19:29:10.906Z,5.32
2023-05-21T19:31:39.230Z,3.05
2023-05-21T19:34:10.517Z,4.18
2023-05-21T19:36:52.383Z,4.35
2023-05-21T19:39:21.684Z,3.47
2023-05-21T19:41:51.606Z,3.20
2023-05-21T19:44:19.649Z,3.97
2023-05-21T19:46:48.603Z,3.30
2023-05-21T19:49:16.591Z,3.72
2023-05-21T19:51:44.976Z,3.13
2023-05-21T19:54:12.874Z,2.90
2023-05-21T19:56:40.821Z,2.90
2023-05-21T19:59:10.071Z,2.30
2023-05-21T20:01:39.958Z,3.00
2023-05-21T20:04:08.077Z,2.60
2023-05-21T20:06:36.106Z,3.10
2023-05-21T20:09:04.222Z,2.50
2023-05-21T20:11:32.390Z,2.88
2023-05-21T20:14:02.066Z,2.40
2023-05-21T20:16:31.447Z,3.13
2023-05-21T20:19:01.616Z,3.25
2023-05-21T20:21:31.475Z,4.28
2023-05-21T20:23:59.461Z,4.85
2023-05-21T20:26:27.366Z,6.97
2023-05-21T20:28:55.276Z,8.10
2023-05-21T20:31:23.417Z,9.38
2023-05-21T20:33:53.712Z,10.38
2023-05-21T20:36:22.108Z,13.57
2023-05-21T20:38:52.444Z,12.20
2023-05-21T20:41:20.531Z,12.88
2023-05-21T20:43:48.470Z,12.13
2023-05-21T20:46:18.383Z,12.32
2023-05-21T20:48:47.242Z,16.85
2023-05-21T20:51:16.577Z,13.40
2023-05-21T20:53:44.479Z,13.77
2023-05-21T20:56:14.827Z,16.90
2023-05-21T20:58:42.740Z,16.52
2023-05-21T21:01:10.843Z,19.80
2023-05-21T21:03:41.384Z,16.80
2023-05-21T21:06:09.788Z,27.77
2023-05-21T21:08:40.181Z,17.05
2023-05-21T21:11:09.078Z,17.27
2023-05-21T21:13:37.104Z,19.40
2023-05-21T21:16:05.799Z,20.27
2023-05-21T21:18:33.738Z,20.88
2023-05-21T21:21:01.770Z,24.27
2023-05-21T21:23:30.565Z,19.55
2023-05-21T21:25:59.852Z,20.15
2023-05-21T21:28:27.783Z,18.92
2023-05-21T21:30:55.789Z,20.98
2023-05-21T21:33:24.432Z,19.98
2023-05-21T21:35:52.390Z,23.05
2023-05-21T21:38:20.344Z,22.00
2023-05-21T21:40:48.278Z,20.42
2023-05-21T21:43:17.571Z,25.95
2023-05-21T21:45:45.694Z,22.05
2023-05-21T21:48:13.686Z,24.48
2023-05-21T21:50:41.738Z,22.45
2023-05-21T21:53:10.015Z,24.85
2023-05-21T21:55:37.937Z,23.23
